Time;durP1;ratioP1;P1;durP2;ratioP2;P2;SDS_P1;SDS_P2;PMS_P1;PMS_P2;Temp;Humidity;BMP_temperature;BMP_pressure;BME280_temperature;BME280_humidity;BME280_pressure;Samples;Min_cycle;Max_cycle;Signal;HPM_P1;HPM_P2
2021/11/14 00:02:12;;;;;;;2.20;1.20;;;19.50;60.50;;;;;;5041009;28;20282;-81
2021/11/14 00:04:37;;;;;;;3.42;1.20;;;19.60;60.50;;;;;;5041139;28;20707;-81
2021/11/14 00:07:03;;;;;;;2.60;1.20;;;19.50;60.50;;;;;;5057278;28;20176;-81
2021/11/14 00:09:30;;;;;;;2.08;1.20;;;19.50;60.40;;;;;;5057278;28;20173;-80
2021/11/14 00:11:56;;;;;;;3.25;1.42;;;19.50;60.50;;;;;;5040752;28;20400;-83
2021/11/14 00:14:22;;;;;;;3.05;1.40;;;19.50;60.40;;;;;;5024180;28;20593;-83
2021/11/14 00:16:47;;;;;;;3.72;1.52;;;19.60;60.40;;;;;;5040684;28;20173;-81
2021/11/14 00:19:13;;;;;;;4.40;1.35;;;19.50;60.40;;;;;;5040541;28;20157;-80
2021/11/14 00:21:41;;;;;;;2.45;1.58;;;19.50;60.50;;;;;;5040402;28;20162;-80
2021/11/14 00:24:09;;;;;;;2.33;1.33;;;19.50;60.50;;;;;;5040808;28;20173;-80
2021/11/14 00:26:35;;;;;;;3.78;1.17;;;19.50;60.50;;;;;;5056899;28;20166;-80
2021/11/14 00:29:01;;;;;;;3.45;1.42;;;19.40;60.50;;;;;;5056988;28;20544;-80
2021/11/14 00:31:26;;;;;;;3.20;1.10;;;19.50;60.40;;;;;;5040517;28;20201;-80
2021/11/14 00:33:52;;;;;;;3.80;1.23;;;19.60;60.50;;;;;;5074780;28;20219;-80
2021/11/14 00:36:21;;;;;;;2.00;1.33;;;19.50;60.40;;;;;;5040363;28;20207;-80
2021/11/14 00:38:47;;;;;;;3.05;1.30;;;19.50;60.50;;;;;;5057137;28;20214;-80
2021/11/14 00:41:12;;;;;;;2.22;1.20;;;19.50;60.50;;;;;;5023652;28;20612;-81
2021/11/14 00:43:38;;;;;;;4.05;1.48;;;19.50;60.40;;;;;;5056853;28;20145;-82
2021/11/14 00:46:05;;;;;;;1.73;1.23;;;19.50;60.40;;;;;;5040004;28;20639;-80
2021/11/14 00:48:31;;;;;;;1.23;1.00;;;19.50;60.40;;;;;;5056573;28;20257;-80
2021/11/14 00:50:56;;;;;;;2.50;1.30;;;19.50;60.50;;;;;;5074404;28;20791;-80
2021/11/14 00:53:22;;;;;;;2.42;1.23;;;19.50;60.50;;;;;;5074301;28;20172;-80
2021/11/14 00:55:48;;;;;;;1.75;1.30;;;19.50;60.30;;;;;;5056507;28;20193;-81
2021/11/14 00:58:14;;;;;;;1.73;1.30;;;19.50;60.40;;;;;;5040140;28;20165;-80
2021/11/14 01:00:40;;;;;;;2.22;1.35;;;19.50;60.40;;;;;;5056431;28;20165;-80
2021/11/14 01:03:06;;;;;;;3.33;1.17;;;19.50;60.50;;;;;;5023286;28;20223;-80
2021/11/14 01:05:33;;;;;;;2.15;1.20;;;19.50;60.50;;;;;;5056246;28;20666;-81
2021/11/14 01:07:58;;;;;;;2.10;1.20;;;19.50;60.50;;;;;;5056459;28;20153;-80
2021/11/14 01:10:28;;;;;;;1.98;1.20;;;19.50;60.40;;;;;;5056100;28;20260;-81
2021/11/14 01:12:53;;;;;;;3.03;1.27;;;19.50;60.30;;;;;;5036212;28;20259;-80
2021/11/14 01:15:19;;;;;;;2.65;1.70;;;19.50;60.30;;;;;;5036265;28;20590;-80
2021/11/14 01:17:46;;;;;;;3.42;1.27;;;19.50;60.10;;;;;;5052535;28;20150;-80
2021/11/14 01:20:14;;;;;;;2.95;1.30;;;19.50;60.00;;;;;;5052987;28;20178;-80
2021/11/14 01:22:40;;;;;;;4.47;1.40;;;19.50;60.20;;;;;;5052822;28;20519;-80
2021/11/14 01:25:10;;;;;;;3.88;1.40;;;19.50;60.30;;;;;;5052510;28;20154;-80
2021/11/14 01:27:36;;;;;;;2.00;0.98;;;19.50;60.00;;;;;;5036269;28;20295;-83
2021/11/14 01:30:06;;;;;;;1.90;1.20;;;19.40;59.90;;;;;;5036194;28;20253;-80
2021/11/14 01:32:31;;;;;;;2.80;1.35;;;19.50;60.00;;;;;;5052397;28;20188;-80
2021/11/14 01:34:57;;;;;;;1.17;1.08;;;19.40;59.90;;;;;;5035912;28;20166;-80
2021/11/14 01:37:23;;;;;;;2.22;1.35;;;19.50;60.10;;;;;;5053638;28;20158;-80
2021/11/14 01:39:48;;;;;;;3.67;1.40;;;19.50;60.00;;;;;;5036112;28;20162;-80
2021/11/14 01:42:14;;;;;;;1.80;1.17;;;19.50;60.00;;;;;;5035261;28;20532;-80
2021/11/14 01:44:40;;;;;;;1.70;1.23;;;19.50;59.80;;;;;;5052362;28;20300;-81
2021/11/14 01:47:05;;;;;;;2.58;1.20;;;19.50;59.90;;;;;;5052344;28;20185;-80
2021/11/14 01:49:31;;;;;;;2.20;1.50;;;19.50;60.00;;;;;;5035817;28;20154;-80
2021/11/14 01:51:57;;;;;;;2.05;1.30;;;19.50;60.00;;;;;;5052117;28;20189;-80
2021/11/14 01:54:23;;;;;;;2.30;1.15;;;19.50;60.10;;;;;;5035974;28;20176;-80
2021/11/14 01:56:48;;;;;;;3.83;1.50;;;19.50;60.00;;;;;;5052205;28;20178;-80
2021/11/14 01:59:15;;;;;;;1.90;1.17;;;19.50;59.80;;;;;;5052020;28;20591;-80
2021/11/14 02:01:41;;;;;;;2.42;1.25;;;19.50;59.80;;;;;;5035557;28;20197;-80
2021/11/14 02:04:07;;;;;;;2.05;0.90;;;19.50;60.10;;;;;;5053197;28;20270;-80
2021/11/14 02:06:34;;;;;;;3.13;1.25;;;19.50;59.80;;;;;;5035610;28;20170;-80
2021/11/14 02:09:00;;;;;;;2.03;1.20;;;19.50;60.00;;;;;;5036071;28;20572;-80
2021/11/14 02:11:26;;;;;;;1.48;1.13;;;19.50;59.90;;;;;;5050732;28;20253;-80
2021/11/14 02:13:51;;;;;;;1.50;1.00;;;19.50;59.70;;;;;;5055230;28;20168;-80
2021/11/14 02:16:20;;;;;;;3.05;1.30;;;19.50;59.80;;;;;;5073102;28;20152;-80
2021/11/14 02:18:45;;;;;;;4.10;1.45;;;19.50;59.80;;;;;;5055791;28;20154;-80
2021/11/14 02:21:11;;;;;;;1.58;1.02;;;19.50;59.50;;;;;;5038364;28;20169;-80
2021/11/14 02:23:38;;;;;;;2.35;1.10;;;19.50;59.50;;;;;;5055193;28;20154;-80
2021/11/14 02:26:04;;;;;;;3.63;1.50;;;19.50;59.80;;;;;;5022385;28;20494;-80
2021/11/14 02:28:29;;;;;;;1.83;1.20;;;19.50;59.70;;;;;;5038478;28;20164;-80
2021/11/14 02:30:56;;;;;;;1.98;1.10;;;19.50;59.80;;;;;;5054974;28;20538;-81
2021/11/14 02:33:22;;;;;;;2.00;1.20;;;19.50;59.50;;;;;;5055414;28;20211;-80
2021/11/14 02:35:50;;;;;;;1.60;1.00;;;19.50;59.70;;;;;;5073100;28;20680;-80
2021/11/14 02:38:17;;;;;;;1.15;1.02;;;19.50;59.80;;;;;;5055018;28;20264;-81
2021/11/14 02:40:43;;;;;;;2.83;1.30;;;19.50;59.80;;;;;;5072955;28;20193;-80
2021/11/14 02:43:10;;;;;;;1.50;1.10;;;19.50;59.90;;;;;;5038353;28;20186;-81
2021/11/14 02:45:36;;;;;;;4.90;1.10;;;19.50;59.90;;;;;;5072763;28;20180;-81
2021/11/14 02:48:03;;;;;;;3.10;1.30;;;19.40;59.80;;;;;;5038550;28;20187;-80
2021/11/14 02:50:29;;;;;;;1.80;1.35;;;19.40;59.60;;;;;;5022115;28;20619;-81
2021/11/14 02:52:55;;;;;;;3.90;1.33;;;19.50;59.60;;;;;;5054866;28;20223;-81
2021/11/14 02:55:22;;;;;;;2.15;1.27;;;19.50;59.50;;;;;;5042071;28;20215;-80
2021/11/14 02:57:47;;;;;;;3.47;1.48;;;19.50;59.50;;;;;;5042282;28;20146;-81
2021/11/14 03:00:21;;;;;;;1.40;1.20;;;19.50;59.40;;;;;;5059050;28;20663;-80
2021/11/14 03:02:47;;;;;;;2.03;1.40;;;19.50;59.40;;;;;;5058887;28;20233;-80
2021/11/14 03:05:14;;;;;;;1.65;1.20;;;19.50;59.80;;;;;;5041945;28;20595;-80
2021/11/14 03:07:40;;;;;;;3.40;1.30;;;19.50;59.80;;;;;;5058720;28;20162;-81
2021/11/14 03:10:07;;;;;;;1.33;1.00;;;19.50;59.80;;;;;;5058609;28;20169;-80
2021/11/14 03:12:33;;;;;;;2.20;1.20;;;19.50;59.90;;;;;;5054461;28;20592;-80
2021/11/14 03:14:59;;;;;;;1.95;1.30;;;19.50;59.70;;;;;;5038793;28;20170;-80
2021/11/14 03:17:25;;;;;;;1.60;1.10;;;19.40;59.60;;;;;;5038563;28;20166;-81
2021/11/14 03:19:51;;;;;;;1.90;1.08;;;19.40;59.80;;;;;;5038388;28;20162;-80
2021/11/14 03:22:17;;;;;;;1.35;1.00;;;19.40;59.60;;;;;;5038607;28;20158;-80
2021/11/14 03:24:42;;;;;;;1.58;1.30;;;19.50;59.80;;;;;;5038712;28;20197;-80
2021/11/14 03:27:08;;;;;;;3.97;1.10;;;19.50;59.90;;;;;;5055990;28;20158;-81
2021/11/14 03:29:34;;;;;;;1.80;1.23;;;19.40;59.60;;;;;;5055090;28;20651;-81
2021/11/14 03:31:59;;;;;;;2.30;1.10;;;19.40;59.70;;;;;;5054671;28;20189;-81
2021/11/14 03:34:25;;;;;;;1.90;1.30;;;19.50;59.40;;;;;;5054785;28;20227;-82
2021/11/14 03:36:51;;;;;;;1.40;1.00;;;19.50;59.40;;;;;;5037770;28;20162;-83
2021/11/14 03:39:16;;;;;;;1.27;1.10;;;19.50;59.70;;;;;;5038186;28;20161;-79
2021/11/14 03:41:42;;;;;;;3.88;1.30;;;19.50;59.40;;;;;;5038040;28;20252;-80
2021/11/14 03:44:09;;;;;;;2.55;1.20;;;19.50;59.30;;;;;;5038120;28;20185;-80
2021/11/14 03:46:34;;;;;;;1.92;1.40;;;19.50;59.60;;;;;;5038244;28;20617;-80
2021/11/14 03:54:42;;;;;;;1.23;1.00;;;19.50;59.40;;;;;;5041481;28;20177;-80
2021/11/14 03:57:08;;;;;;;1.55;1.20;;;19.40;59.30;;;;;;5038022;28;20186;-80
2021/11/14 03:59:33;;;;;;;1.77;0.90;;;19.50;59.50;;;;;;5054170;28;20162;-80
2021/11/14 04:02:00;;;;;;;1.40;1.15;;;19.50;59.60;;;;;;5037490;28;20165;-80
2021/11/14 04:04:25;;;;;;;2.00;1.20;;;19.50;59.50;;;;;;5054006;28;20150;-80
2021/11/14 04:06:51;;;;;;;1.48;1.20;;;19.40;59.20;;;;;;5037606;28;20513;-81
2021/11/14 04:09:17;;;;;;;2.75;1.15;;;19.40;59.40;;;;;;5054231;28;20177;-80
2021/11/14 04:11:42;;;;;;;2.33;1.30;;;19.40;59.40;;;;;;5038362;28;20197;-80
2021/11/14 04:14:08;;;;;;;2.50;1.30;;;19.50;59.40;;;;;;5040324;28;20213;-81
2021/11/14 04:16:34;;;;;;;2.75;1.38;;;19.50;59.40;;;;;;5041276;28;20170;-80
2021/11/14 04:18:59;;;;;;;2.17;1.00;;;19.50;60.20;;;;;;5057266;28;20157;-80
2021/11/14 04:21:26;;;;;;;1.88;1.00;;;19.50;59.60;;;;;;5057081;28;20241;-80
2021/11/14 04:23:52;;;;;;;2.35;1.00;;;19.50;59.70;;;;;;5075091;28;20207;-83
2021/11/14 04:26:18;;;;;;;1.10;1.00;;;19.40;59.60;;;;;;5024005;28;20162;-83
2021/11/14 04:28:44;;;;;;;2.67;1.10;;;19.50;59.70;;;;;;5040545;28;20166;-83
2021/11/14 04:31:09;;;;;;;3.10;1.20;;;19.50;59.90;;;;;;5056818;28;20164;-81
2021/11/14 04:33:35;;;;;;;1.67;1.17;;;19.40;59.40;;;;;;5056876;28;20240;-80
2021/11/14 04:36:01;;;;;;;2.08;1.17;;;19.40;59.40;;;;;;5056985;28;20224;-80
2021/11/14 04:38:26;;;;;;;1.98;1.25;;;19.50;59.90;;;;;;5040121;28;20666;-80
2021/11/14 04:40:52;;;;;;;1.85;1.27;;;19.40;59.90;;;;;;5040139;28;20155;-80
2021/11/14 04:43:18;;;;;;;3.05;1.20;;;19.40;59.70;;;;;;5040598;28;20260;-81
2021/11/14 04:45:45;;;;;;;1.60;1.38;;;19.40;59.80;;;;;;5040186;28;20169;-80
2021/11/14 04:48:11;;;;;;;1.63;1.10;;;19.40;59.90;;;;;;5056749;28;20150;-83
2021/11/14 04:50:37;;;;;;;1.75;1.10;;;19.40;59.70;;;;;;5056602;28;20510;-81
2021/11/14 04:53:04;;;;;;;2.90;1.50;;;19.40;59.70;;;;;;5056427;28;20181;-80
2021/11/14 04:55:30;;;;;;;2.38;1.08;;;19.40;59.30;;;;;;5057530;28;20165;-80
2021/11/14 04:57:55;;;;;;;1.20;1.10;;;19.30;59.60;;;;;;5039925;28;20172;-81
2021/11/14 05:00:23;;;;;;;2.58;1.42;;;19.40;59.70;;;;;;5039915;28;20173;-80
2021/11/14 05:02:49;;;;;;;1.40;1.20;;;19.40;59.40;;;;;;5039764;28;20169;-80
2021/11/14 05:05:15;;;;;;;2.42;1.38;;;19.40;59.60;;;;;;5056361;28;20188;-80
2021/11/14 05:07:41;;;;;;;1.20;1.08;;;19.40;59.40;;;;;;5039699;28;20197;-80
2021/11/14 05:10:07;;;;;;;2.47;1.10;;;19.40;59.40;;;;;;5056210;28;20164;-80
2021/11/14 05:12:32;;;;;;;1.30;1.00;;;19.40;59.30;;;;;;5052478;28;20236;-80
2021/11/14 05:14:58;;;;;;;2.30;1.30;;;19.50;59.20;;;;;;5019880;28;20162;-80
2021/11/14 05:17:24;;;;;;;1.67;1.10;;;19.50;59.40;;;;;;5053064;28;20569;-81
2021/11/14 05:19:50;;;;;;;1.42;0.82;;;19.40;59.30;;;;;;5036592;28;20158;-81
2021/11/14 05:22:16;;;;;;;2.70;1.20;;;19.40;59.20;;;;;;5053957;28;20150;-80
2021/11/14 05:24:42;;;;;;;1.70;1.10;;;19.50;59.30;;;;;;5052564;28;20660;-80
2021/11/14 05:27:07;;;;;;;1.45;1.17;;;19.40;59.20;;;;;;5019885;28;20166;-81
2021/11/14 05:29:33;;;;;;;1.38;1.05;;;19.40;59.10;;;;;;5052562;28;20637;-81
2021/11/14 05:32:00;;;;;;;1.13;0.95;;;19.50;59.10;;;;;;5052730;28;20265;-80
2021/11/14 05:34:26;;;;;;;1.75;1.20;;;19.50;59.10;;;;;;5052548;28;20187;-81
2021/11/14 05:36:51;;;;;;;2.83;1.30;;;19.50;59.10;;;;;;5053617;28;20150;-81
2021/11/14 05:39:17;;;;;;;2.20;1.20;;;19.50;59.40;;;;;;5053543;28;20180;-80
2021/11/14 05:41:44;;;;;;;2.60;1.00;;;19.40;59.10;;;;;;5052241;28;20158;-80
2021/11/14 05:44:09;;;;;;;1.65;1.27;;;19.40;59.10;;;;;;5035955;28;20154;-81
2021/11/14 05:46:35;;;;;;;1.33;0.95;;;19.40;59.40;;;;;;5052421;28;20158;-81
2021/11/14 05:49:06;;;;;;;1.60;1.13;;;19.40;59.50;;;;;;5052173;28;20182;-80
2021/11/14 05:51:32;;;;;;;1.50;1.17;;;19.40;59.20;;;;;;5036315;28;20209;-80
2021/11/14 05:53:58;;;;;;;1.70;1.02;;;19.40;59.10;;;;;;5052529;28;20154;-81
2021/11/14 05:56:23;;;;;;;2.28;1.48;;;19.50;59.10;;;;;;5019015;28;20647;-80
2021/11/14 05:58:56;;;;;;;1.67;1.20;;;19.40;59.10;;;;;;5052126;28;20197;-81
2021/11/14 06:01:30;;;;;;;1.67;1.30;;;19.40;59.20;;;;;;5052605;28;20169;-80
2021/11/14 06:06:40;;;;;;;1.95;1.45;;;19.40;59.30;;;;;;5052204;28;20624;-80
2021/11/14 06:09:06;;;;;;;1.55;1.10;;;19.40;59.40;;;;;;5051849;28;20193;-80
2021/11/14 06:11:31;;;;;;;1.52;1.15;;;19.40;59.60;;;;;;5031770;28;20198;-81
2021/11/14 06:13:57;;;;;;;1.50;1.20;;;19.40;59.50;;;;;;5015486;28;20222;-80
2021/11/14 06:16:23;;;;;;;1.98;1.20;;;19.40;59.60;;;;;;5032627;28;20166;-80
2021/11/14 06:18:48;;;;;;;1.88;1.13;;;19.40;59.60;;;;;;5019540;28;20624;-81
2021/11/14 06:21:14;;;;;;;2.00;1.13;;;19.40;59.30;;;;;;5051962;28;20199;-81
2021/11/14 06:23:40;;;;;;;2.05;1.10;;;19.40;59.40;;;;;;5053030;28;20174;-81
2021/11/14 06:26:05;;;;;;;0.90;0.90;;;19.40;59.50;;;;;;5051799;28;20176;-81
2021/11/14 06:28:31;;;;;;;1.90;1.35;;;19.40;59.60;;;;;;5054182;28;20182;-80
2021/11/14 06:30:57;;;;;;;1.83;1.15;;;19.40;59.60;;;;;;5056076;28;20162;-84
2021/11/14 06:33:23;;;;;;;2.20;1.02;;;19.30;59.40;;;;;;5055772;28;20186;-81
2021/11/14 06:35:48;;;;;;;1.98;1.10;;;19.40;59.60;;;;;;5055785;28;20150;-80
2021/11/14 06:38:14;;;;;;;2.60;1.30;;;19.40;59.50;;;;;;5055768;28;20633;-80
2021/11/14 06:40:40;;;;;;;1.38;1.00;;;19.40;59.40;;;;;;5055651;28;20150;-81
2021/11/14 06:43:05;;;;;;;1.92;1.10;;;19.40;59.30;;;;;;5038999;28;20202;-81
2021/11/14 06:45:31;;;;;;;1.00;0.90;;;19.40;59.40;;;;;;5055626;28;20154;-80
2021/11/14 06:47:57;;;;;;;2.25;1.35;;;19.40;59.60;;;;;;5039200;28;20265;-81
2021/11/14 06:50:23;;;;;;;1.48;1.10;;;19.40;59.70;;;;;;5055532;28;20225;-81
2021/11/14 06:52:49;;;;;;;2.10;1.35;;;19.40;59.80;;;;;;5054919;28;20189;-80
2021/11/14 06:55:15;;;;;;;1.65;1.10;;;19.40;59.50;;;;;;5023072;28;20508;-81
2021/11/14 06:57:41;;;;;;;2.05;1.23;;;19.40;59.50;;;;;;5038897;28;20162;-81
2021/11/14 07:00:09;;;;;;;1.55;1.13;;;19.40;59.40;;;;;;5056839;28;20169;-83
2021/11/14 07:02:35;;;;;;;2.45;1.10;;;19.40;59.40;;;;;;5055711;28;20162;-83
2021/11/14 07:05:00;;;;;;;1.90;1.10;;;19.40;59.40;;;;;;5055234;28;20154;-81
2021/11/14 07:07:26;;;;;;;2.05;1.20;;;19.40;59.30;;;;;;5022619;28;20540;-80
2021/11/14 07:09:52;;;;;;;2.55;1.02;;;19.40;59.70;;;;;;5056346;28;20229;-81
2021/11/14 07:12:17;;;;;;;1.88;1.05;;;19.40;59.30;;;;;;5054842;28;20256;-81
2021/11/14 07:14:43;;;;;;;1.48;1.02;;;19.40;58.70;;;;;;5056630;28;20165;-80
2021/11/14 07:17:09;;;;;;;1.10;0.90;;;19.40;58.30;;;;;;5055474;28;20257;-81
2021/11/14 07:19:34;;;;;;;1.10;1.00;;;19.40;58.70;;;;;;5038830;28;20241;-81
2021/11/14 07:22:00;;;;;;;1.58;1.00;;;19.40;58.60;;;;;;5056098;28;20201;-80
2021/11/14 07:24:26;;;;;;;2.28;1.10;;;19.40;58.70;;;;;;5008826;28;20250;-81
2021/11/14 07:26:52;;;;;;;1.17;0.90;;;19.40;58.50;;;;;;5018979;28;20186;-80
2021/11/14 07:29:17;;;;;;;1.88;1.00;;;19.40;58.70;;;;;;5036008;28;20179;-80
2021/11/14 07:31:43;;;;;;;1.25;0.93;;;19.40;58.50;;;;;;5035973;28;20218;-81
2021/11/14 07:34:09;;;;;;;2.42;1.25;;;19.40;58.50;;;;;;5035244;28;20517;-80
2021/11/14 07:36:34;;;;;;;0.98;0.90;;;19.40;58.50;;;;;;5035015;28;20503;-81
2021/11/14 07:39:00;;;;;;;1.88;0.90;;;19.40;58.40;;;;;;5034167;28;20155;-81
2021/11/14 07:41:26;;;;;;;1.10;1.00;;;19.40;58.50;;;;;;5034523;28;20166;-80
2021/11/14 07:43:51;;;;;;;2.75;1.00;;;19.40;58.30;;;;;;5034950;28;20229;-80
2021/11/14 07:46:17;;;;;;;2.47;1.00;;;19.40;58.20;;;;;;5018575;28;20173;-80
2021/11/14 07:48:43;;;;;;;1.05;0.90;;;19.50;58.30;;;;;;5035186;28;20158;-80
2021/11/14 07:51:09;;;;;;;2.10;1.10;;;19.40;58.30;;;;;;5034538;28;20159;-80
2021/11/14 07:53:35;;;;;;;1.83;1.20;;;19.50;58.40;;;;;;5034285;28;20209;-79
2021/11/14 07:56:01;;;;;;;1.13;0.90;;;19.50;58.40;;;;;;5034426;28;20165;-80
2021/11/14 07:58:27;;;;;;;1.35;1.10;;;19.50;58.30;;;;;;5034608;28;20143;-80
2021/11/14 08:00:52;;;;;;;4.38;1.20;;;19.50;58.20;;;;;;5035477;28;20158;-79
2021/11/14 08:03:18;;;;;;;0.93;0.70;;;19.50;58.40;;;;;;5033897;28;20163;-79
2021/11/14 08:05:44;;;;;;;2.03;1.15;;;19.60;58.20;;;;;;5033736;28;20571;-80
2021/11/14 08:08:11;;;;;;;1.85;1.13;;;19.60;58.40;;;;;;5034274;28;20163;-79
2021/11/14 08:10:37;;;;;;;3.28;1.30;;;19.60;58.30;;;;;;5034023;28;20249;-80
2021/11/14 08:13:04;;;;;;;4.35;1.10;;;19.60;58.30;;;;;;5033929;28;20222;-80
2021/11/14 08:15:29;;;;;;;1.50;1.02;;;19.70;58.30;;;;;;5033801;28;20174;-80
2021/11/14 08:17:55;;;;;;;1.83;1.00;;;19.70;58.20;;;;;;5033983;28;20155;-80
2021/11/14 08:20:21;;;;;;;3.00;1.30;;;19.70;58.00;;;;;;5017229;28;20589;-80
2021/11/14 08:22:47;;;;;;;3.17;1.40;;;19.80;58.00;;;;;;5033752;28;20165;-80
2021/11/14 08:25:14;;;;;;;3.17;1.30;;;19.80;57.90;;;;;;5033513;28;20254;-80
2021/11/14 08:27:40;;;;;;;6.00;1.10;;;19.80;58.00;;;;;;5033601;28;20170;-80
2021/11/14 08:30:08;;;;;;;6.90;1.35;;;19.80;57.90;;;;;;5016816;28;20576;-81
2021/11/14 08:32:34;;;;;;;3.85;1.08;;;19.80;58.00;;;;;;5017090;28;20222;-80
2021/11/14 08:34:59;;;;;;;4.80;1.20;;;19.80;57.80;;;;;;5017008;28;20199;-80
2021/11/14 08:37:25;;;;;;;7.25;1.27;;;19.80;57.70;;;;;;5033200;28;20186;-80
2021/11/14 08:39:50;;;;;;;7.53;1.23;;;19.80;57.80;;;;;;5033564;28;20186;-79
2021/11/14 08:42:16;;;;;;;3.40;1.00;;;19.80;57.90;;;;;;5034755;28;20209;-79
2021/11/14 08:44:42;;;;;;;2.78;1.17;;;19.90;57.90;;;;;;5034678;28;20162;-80
2021/11/14 08:47:08;;;;;;;4.47;1.10;;;19.90;57.80;;;;;;5034857;28;20680;-79
2021/11/14 08:49:34;;;;;;;4.45;1.27;;;19.90;57.60;;;;;;5047983;28;20170;-79
2021/11/14 08:52:00;;;;;;;3.28;1.15;;;19.90;57.80;;;;;;5072572;28;20193;-79
2021/11/14 08:54:26;;;;;;;7.65;1.50;;;19.90;58.00;;;;;;5075086;28;20157;-79
2021/11/14 08:56:52;;;;;;;5.50;1.13;;;19.90;58.00;;;;;;5057120;28;20544;-80
2021/11/14 08:59:18;;;;;;;9.10;1.30;;;19.90;57.90;;;;;;5057641;28;20161;-79
2021/11/14 09:01:44;;;;;;;11.10;1.65;;;19.90;58.00;;;;;;5056007;28;20233;-80
2021/11/14 09:04:10;;;;;;;12.57;1.50;;;19.90;58.00;;;;;;5041974;28;20163;-79
2021/11/14 09:06:37;;;;;;;10.25;1.52;;;20.00;57.80;;;;;;5032992;28;20177;-79
2021/11/14 09:09:04;;;;;;;12.73;1.60;;;20.00;57.80;;;;;;5035045;28;20155;-81
2021/11/14 09:11:30;;;;;;;13.63;1.50;;;20.00;58.00;;;;;;5016019;28;20225;-79
2021/11/14 09:13:56;;;;;;;8.75;1.80;;;20.00;57.90;;;;;;5051359;28;20735;-80
2021/11/14 09:16:27;;;;;;;7.82;1.50;;;20.00;57.90;;;;;;5020484;28;20204;-81
2021/11/14 09:18:54;;;;;;;8.82;1.20;;;20.00;57.90;;;;;;5036873;28;20150;-82
2021/11/14 09:21:19;;;;;;;7.93;1.33;;;20.00;57.90;;;;;;5035738;28;20602;-81
2021/11/14 09:23:45;;;;;;;4.88;1.20;;;20.00;57.80;;;;;;5003053;28;20190;-81
2021/11/14 09:26:10;;;;;;;8.85;1.50;;;20.00;58.10;;;;;;5035603;28;20154;-80
2021/11/14 09:28:36;;;;;;;6.10;1.40;;;20.00;57.90;;;;;;5035583;28;20242;-81
2021/11/14 09:31:02;;;;;;;4.28;1.30;;;20.00;57.80;;;;;;5053737;28;20180;-81
2021/11/14 09:33:27;;;;;;;5.55;1.30;;;20.00;57.90;;;;;;5053780;28;20186;-80
2021/11/14 09:35:54;;;;;;;5.75;1.40;;;20.00;58.00;;;;;;5035813;28;20154;-81
2021/11/14 09:38:20;;;;;;;9.35;1.25;;;20.00;58.00;;;;;;5018805;28;20166;-81
2021/11/14 09:40:46;;;;;;;7.60;1.30;;;19.90;58.10;;;;;;5034964;28;20637;-79
2021/11/14 09:43:13;;;;;;;7.55;1.73;;;19.90;57.90;;;;;;5035064;28;20165;-80
2021/11/14 09:45:39;;;;;;;6.65;1.20;;;20.00;58.00;;;;;;5036503;28;20174;-80
2021/11/14 09:48:05;;;;;;;5.93;1.38;;;20.00;57.80;;;;;;5036163;28;20205;-81
2021/11/14 09:50:31;;;;;;;8.20;1.40;;;20.00;57.80;;;;;;5034629;28;20672;-80
2021/11/14 09:52:57;;;;;;;14.50;1.50;;;20.00;57.70;;;;;;5035766;28;20229;-81
2021/11/14 09:55:23;;;;;;;12.40;1.65;;;20.00;57.80;;;;;;5018559;28;20196;-81
2021/11/14 09:57:49;;;;;;;11.85;1.60;;;20.00;57.90;;;;;;5035354;28;20150;-79
2021/11/14 10:00:18;;;;;;;9.93;1.33;;;20.00;57.70;;;;;;5035795;28;20173;-83
2021/11/14 10:02:43;;;;;;;8.07;1.30;;;20.10;57.80;;;;;;5053080;28;20166;-81
2021/11/14 10:05:10;;;;;;;10.50;1.58;;;20.00;57.80;;;;;;5018677;28;20173;-81
2021/11/14 10:07:37;;;;;;;10.18;1.30;;;20.00;58.20;;;;;;5020542;28;20211;-80
2021/11/14 10:10:03;;;;;;;9.75;1.75;;;20.00;58.40;;;;;;5035367;28;20150;-80
2021/11/14 10:12:32;;;;;;;8.13;1.63;;;20.00;58.10;;;;;;5031779;28;20691;-82
2021/11/14 10:15:11;;;;;;;8.70;1.50;;;20.00;58.40;;;;;;5033128;28;20520;-81
2021/11/14 10:17:37;;;;;;;14.85;1.48;;;20.00;58.30;;;;;;5034362;28;20652;-81
2021/11/14 10:20:12;;;;;;;11.50;1.67;;;20.00;58.30;;;;;;5033852;28;20163;-80
2021/11/14 10:22:44;;;;;;;6.65;1.60;;;20.00;58.30;;;;;;5033403;28;20163;-81
2021/11/14 10:25:11;;;;;;;11.43;1.42;;;19.90;58.30;;;;;;5014460;28;20162;-81
2021/11/14 10:27:39;;;;;;;10.68;1.30;;;20.00;58.40;;;;;;5020321;28;20182;-83
2021/11/14 10:30:06;;;;;;;13.63;1.83;;;19.90;58.90;;;;;;5042646;28;20185;-81
2021/11/14 10:32:32;;;;;;;7.53;1.38;;;19.90;58.00;;;;;;5046233;28;20184;-82
2021/11/14 10:34:59;;;;;;;7.30;1.23;;;20.00;58.20;;;;;;5075612;28;20266;-82
2021/11/14 10:37:27;;;;;;;7.90;1.52;;;20.00;58.30;;;;;;5056924;28;20189;-81
2021/11/14 10:39:55;;;;;;;11.13;1.70;;;19.90;58.20;;;;;;5075155;28;20154;-82
2021/11/14 10:42:23;;;;;;;10.38;1.50;;;19.90;58.00;;;;;;5039694;28;20169;-82
2021/11/14 10:44:50;;;;;;;11.50;1.75;;;19.90;58.20;;;;;;5073073;28;20158;-81
2021/11/14 10:47:22;;;;;;;14.13;1.73;;;19.90;58.50;;;;;;5072620;28;20160;-82
2021/11/14 10:49:59;;;;;;;9.20;1.92;;;20.00;58.60;;;;;;5057498;28;20185;-82
2021/11/14 10:52:26;;;;;;;11.40;1.75;;;20.00;58.60;;;;;;5040625;28;20207;-82
2021/11/14 10:54:57;;;;;;;7.43;1.60;;;19.90;58.60;;;;;;5055604;28;20162;-82
2021/11/14 10:57:25;;;;;;;10.57;1.88;;;19.90;58.30;;;;;;5039325;28;20229;-81
2021/11/14 10:59:51;;;;;;;8.35;1.55;;;20.00;58.30;;;;;;5056289;28;20146;-81
2021/11/14 11:02:18;;;;;;;8.77;1.33;;;20.00;58.40;;;;;;5038053;28;20256;-82
2021/11/14 11:04:44;;;;;;;7.72;1.40;;;20.00;58.50;;;;;;5055401;28;20177;-81
2021/11/14 11:07:10;;;;;;;7.28;1.63;;;20.00;58.30;;;;;;5055287;28;20281;-81
2021/11/14 11:09:38;;;;;;;7.93;1.25;;;19.90;58.30;;;;;;5072658;28;20652;-81
2021/11/14 11:12:16;;;;;;;6.97;1.50;;;19.90;58.20;;;;;;5073202;28;20197;-82
2021/11/14 11:14:52;;;;;;;6.85;1.30;;;20.00;58.10;;;;;;5076787;28;20160;-81
2021/11/14 11:17:18;;;;;;;5.05;1.63;;;19.90;58.10;;;;;;5079952;28;20156;-81
2021/11/14 11:19:43;;;;;;;4.30;1.30;;;19.90;58.20;;;;;;5080144;28;20160;-81
2021/11/14 11:22:09;;;;;;;2.88;1.00;;;20.00;58.30;;;;;;5079826;28;20173;-82
2021/11/14 11:24:35;;;;;;;7.50;1.40;;;20.00;57.90;;;;;;5063721;28;20157;-82
2021/11/14 11:27:03;;;;;;;6.70;1.20;;;19.90;58.00;;;;;;5047128;28;20270;-82
2021/11/14 11:29:31;;;;;;;4.13;1.20;;;19.90;57.60;;;;;;5063975;28;20169;-83
2021/11/14 11:31:57;;;;;;;6.30;1.20;;;20.00;57.80;;;;;;5045883;28;20192;-82
2021/11/14 11:34:24;;;;;;;5.45;1.20;;;19.90;57.90;;;;;;5062444;28;20164;-81
2021/11/14 11:36:50;;;;;;;3.88;1.60;;;19.90;58.00;;;;;;5061931;28;20145;-81
2021/11/14 11:39:16;;;;;;;7.28;1.40;;;19.90;57.80;;;;;;5060650;28;20192;-82
2021/11/14 11:41:44;;;;;;;5.88;1.48;;;19.90;57.80;;;;;;5076701;28;20192;-82
2021/11/14 11:44:10;;;;;;;6.32;1.10;;;19.90;58.00;;;;;;5044320;28;20225;-81
2021/11/14 11:46:36;;;;;;;5.82;1.40;;;19.90;58.20;;;;;;5042990;28;20161;-81
2021/11/14 11:49:04;;;;;;;6.28;1.30;;;19.90;58.30;;;;;;5044498;28;20213;-81
2021/11/14 11:51:32;;;;;;;5.20;1.27;;;19.90;58.50;;;;;;5045190;28;20685;-82
2021/11/14 11:54:01;;;;;;;8.45;1.33;;;19.90;58.50;;;;;;5096212;28;20210;-81
2021/11/14 11:56:41;;;;;;;5.90;1.30;;;19.90;58.20;;;;;;5062275;28;20145;-81
2021/11/14 11:59:13;;;;;;;5.05;1.27;;;19.90;58.20;;;;;;5064315;28;20157;-80
2021/11/14 12:01:56;;;;;;;6.95;1.42;;;19.90;58.10;;;;;;5079325;28;20149;-81
2021/11/14 12:04:26;;;;;;;7.28;1.45;;;19.90;59.00;;;;;;5078668;28;20149;-81
2021/11/14 12:07:03;;;;;;;5.47;1.40;;;19.90;58.70;;;;;;5061753;28;20156;-81
2021/11/14 12:09:55;;;;;;;2.88;1.10;;;19.90;58.70;;;;;;5061885;28;20160;-82
2021/11/14 12:12:36;;;;;;;4.35;1.38;;;20.00;58.60;;;;;;5045331;28;20228;-82
2021/11/14 12:15:20;;;;;;;3.53;1.42;;;19.90;58.90;;;;;;5014668;28;20194;-81
2021/11/14 12:17:53;;;;;;;4.88;1.20;;;19.90;58.70;;;;;;4999247;28;20172;-82
2021/11/14 12:20:29;;;;;;;9.68;1.38;;;19.90;58.70;;;;;;5000625;28;20258;-82
2021/11/14 12:23:02;;;;;;;4.22;1.50;;;19.90;58.60;;;;;;4984529;28;20540;-82
2021/11/14 12:25:37;;;;;;;6.22;1.27;;;19.90;58.50;;;;;;4982844;28;20195;-82
2021/11/14 12:28:11;;;;;;;9.00;1.30;;;20.00;58.70;;;;;;4997839;28;20171;-81
2021/11/14 12:30:40;;;;;;;5.32;1.17;;;19.90;58.60;;;;;;4997656;28;20175;-82
2021/11/14 12:33:08;;;;;;;4.80;1.20;;;20.00;58.50;;;;;;5014789;28;20286;-81
2021/11/14 12:35:42;;;;;;;4.90;1.15;;;20.00;58.60;;;;;;4998419;28;20289;-81
2021/11/14 12:38:11;;;;;;;5.57;1.65;;;19.90;58.50;;;;;;4996809;28;20186;-81
2021/11/14 12:40:46;;;;;;;9.20;1.23;;;20.00;58.50;;;;;;4996659;28;20191;-82
2021/11/14 12:43:18;;;;;;;5.35;1.25;;;19.90;58.60;;;;;;4997556;28;20545;-81
2021/11/14 12:45:51;;;;;;;9.25;1.33;;;20.00;58.90;;;;;;5006423;28;20656;-81
2021/11/14 12:48:19;;;;;;;5.47;1.50;;;19.90;59.10;;;;;;5020740;28;20528;-81
2021/11/14 12:50:45;;;;;;;6.07;1.10;;;20.00;59.10;;;;;;5053668;28;20186;-82
2021/11/14 12:53:15;;;;;;;5.68;1.20;;;20.00;59.00;;;;;;5038112;28;20279;-82